Aviation Digital Data Service (ADDS)

Output produced by METARs form (2044 UTC 15 August 2018)
found at http://aviationweather.gov/adds/metars/
 
KNEW 151741Z 1518/1618 32006KT P6SM VCTS SCT050CB 
     FM152200 13006KT P6SM VCSH SCT045 BKN110 
     FM160000 17008KT P6SM FEW250 
     FM161500 33005KT P6SM SCT250